Terminal Aerodrome Forecast
Issued by NWS Omaha/Valley, NE

Home | Current Version | Previous Version | Graphics & Text | Print | Product List | Glossary On
Versions: 1 2 3 4 5 6 7 8 9 10 11 12 13 14 15 16 17 18 19 20 21 22 23 24 25 26 27 28 29 30
000
FTUS43 KOAX 252320
TAFOFK
TAF
KOFK 252320Z 2600/2624 01006KT P6SM SCT150
     FM261000 10003KT 4SM BR OVC120
     FM261400 12006KT P6SM BKN120
      TEMPO 2615/2619 4SM -TSRA OVC050CB
     FM262000 35010KT P6SM SCT120=

USA.gov is the U.S. government's official web portal to all federal, state and local government web resources and services.